createdAt,value
2023-02-13T00:01:49.274Z,63.39
2023-02-13T00:04:18.930Z,63.29
2023-02-13T00:06:51.518Z,63.48
2023-02-13T00:09:20.137Z,63.33
2023-02-13T00:11:58.379Z,63.41
2023-02-13T00:14:33.674Z,63.36
2023-02-13T00:17:02.995Z,63.52
2023-02-13T00:19:38.341Z,63.50
2023-02-13T00:22:10.125Z,63.66
2023-02-13T00:24:41.794Z,63.56
2023-02-13T00:27:12.222Z,63.65
2023-02-13T00:29:44.405Z,63.64
2023-02-13T00:32:20.454Z,63.80
2023-02-13T00:35:08.616Z,63.82
2023-02-13T00:37:37.639Z,64.00
2023-02-13T00:40:07.965Z,64.06
2023-02-13T00:42:38.373Z,64.07
2023-02-13T00:45:16.266Z,64.14
2023-02-13T00:47:44.882Z,64.30
2023-02-13T00:50:18.724Z,64.28
2023-02-13T00:52:51.549Z,64.34
2023-02-13T00:55:21.769Z,64.39
2023-02-13T00:57:50.562Z,64.46
2023-02-13T01:00:21.059Z,64.61
2023-02-13T01:02:49.876Z,64.73
2023-02-13T01:05:23.635Z,64.74
2023-02-13T01:07:52.990Z,64.89
2023-02-13T01:10:21.802Z,64.98
2023-02-13T01:12:50.707Z,65.08
2023-02-13T01:15:19.501Z,65.16
2023-02-13T01:17:49.534Z,65.44
2023-02-13T01:20:18.558Z,65.57
2023-02-13T01:22:49.034Z,65.61
2023-02-13T01:25:18.787Z,65.72
2023-02-13T01:27:47.744Z,65.83
2023-02-13T01:30:21.441Z,66.09
2023-02-13T01:32:53.823Z,66.15
2023-02-13T01:35:22.250Z,66.19
2023-02-13T01:37:54.744Z,66.21
2023-02-13T01:40:26.340Z,66.43
2023-02-13T01:42:55.872Z,66.62
2023-02-13T01:45:27.009Z,66.59
2023-02-13T01:48:01.330Z,66.77
2023-02-13T01:50:43.645Z,66.67
2023-02-13T01:53:56.570Z,66.80
2023-02-13T01:56:38.212Z,66.84
2023-02-13T01:59:16.484Z,67.04
2023-02-13T02:01:46.477Z,67.14
2023-02-13T02:04:34.566Z,67.08
2023-02-13T02:07:29.772Z,67.20
2023-02-13T02:10:08.545Z,67.33
2023-02-13T02:12:52.922Z,67.36
2023-02-13T02:15:24.878Z,67.43
2023-02-13T02:17:57.129Z,67.44
2023-02-13T02:20:56.309Z,67.51
2023-02-13T02:23:31.617Z,67.62
2023-02-13T02:26:20.342Z,67.78
2023-02-13T02:29:07.656Z,67.72
2023-02-13T02:32:08.796Z,67.89
2023-02-13T02:34:57.453Z,67.88
2023-02-13T02:38:08.345Z,68.13
2023-02-13T02:41:04.456Z,68.12
2023-02-13T02:43:54.437Z,68.37
2023-02-13T02:47:17.500Z,68.19
2023-02-13T02:50:07.462Z,68.40
2023-02-13T02:52:58.605Z,68.50
2023-02-13T02:55:39.232Z,68.45
2023-02-13T02:58:39.903Z,68.60
2023-02-13T03:01:35.402Z,68.84
2023-02-13T03:04:50.181Z,68.85
2023-02-13T03:07:19.644Z,68.88
2023-02-13T03:10:12.350Z,68.93
2023-02-13T03:13:05.776Z,68.93
2023-02-13T03:16:01.157Z,69.12
2023-02-13T03:18:59.050Z,69.12
2023-02-13T03:22:05.253Z,69.23
2023-02-13T03:25:01.409Z,69.27
2023-02-13T03:28:09.664Z,69.41
2023-02-13T03:30:58.759Z,69.45
2023-02-13T03:34:02.162Z,69.43
2023-02-13T03:37:11.864Z,69.67
2023-02-13T03:40:11.027Z,69.88
2023-02-13T03:43:05.260Z,70.07
2023-02-13T03:45:55.592Z,70.11
2023-02-13T03:48:51.488Z,70.24
2023-02-13T03:52:06.341Z,70.34
2023-02-13T03:55:24.005Z,70.27
2023-02-13T03:58:17.748Z,70.51
2023-02-13T04:00:52.019Z,70.63
2023-02-13T04:03:49.440Z,70.72
2023-02-13T04:06:35.052Z,70.83
2023-02-13T04:09:07.818Z,70.91
2023-02-13T04:12:03.149Z,70.93
2023-02-13T04:14:59.006Z,70.95
2023-02-13T04:17:35.310Z,71.31
2023-02-13T04:20:06.325Z,71.35
2023-02-13T04:22:42.287Z,71.46
2023-02-13T04:25:18.494Z,71.54
2023-02-13T04:28:20.210Z,71.73
2023-02-13T04:30:50.578Z,71.87
2023-02-13T04:33:25.077Z,71.97
2023-02-13T04:35:55.594Z,72.17
2023-02-13T04:38:25.204Z,72.08
2023-02-13T04:41:01.398Z,72.23
2023-02-13T04:43:31.262Z,72.06
2023-02-13T04:46:00.006Z,72.06
2023-02-13T04:48:38.735Z,72.02
2023-02-13T04:51:09.652Z,72.08
2023-02-13T04:53:39.512Z,72.12
2023-02-13T04:56:13.016Z,71.95
2023-02-13T04:58:43.500Z,71.96
2023-02-13T05:01:15.034Z,72.02
2023-02-13T05:03:45.914Z,71.96
2023-02-13T05:06:20.194Z,71.87
2023-02-13T05:08:49.441Z,71.72
2023-02-13T05:11:26.039Z,71.70
2023-02-13T05:14:03.647Z,71.72
2023-02-13T05:16:35.058Z,71.70
2023-02-13T05:19:05.800Z,71.68
2023-02-13T05:21:55.182Z,71.75
2023-02-13T05:24:33.670Z,71.61
2023-02-13T05:27:10.503Z,71.75
2023-02-13T05:29:44.052Z,71.58
2023-02-13T05:32:16.678Z,71.56
2023-02-13T05:34:50.868Z,71.75
2023-02-13T05:37:19.702Z,71.41
2023-02-13T05:39:48.125Z,71.54
2023-02-13T05:42:17.422Z,71.45
2023-02-13T05:44:45.809Z,71.49
2023-02-13T05:47:17.237Z,71.55
2023-02-13T05:49:46.465Z,71.40
2023-02-13T05:52:18.753Z,71.29
2023-02-13T05:54:50.134Z,71.32
2023-02-13T05:57:25.101Z,71.25
2023-02-13T05:59:57.429Z,71.39
2023-02-13T06:02:29.966Z,71.22
2023-02-13T06:05:00.138Z,71.13
2023-02-13T06:07:32.012Z,71.11
2023-02-13T06:10:02.352Z,71.10
2023-02-13T06:12:44.343Z,71.04
2023-02-13T06:15:15.056Z,71.02
2023-02-13T06:18:02.716Z,70.98
2023-02-13T06:20:34.358Z,70.93
2023-02-13T06:23:07.650Z,70.91
2023-02-13T06:25:39.052Z,70.83
2023-02-13T06:28:13.104Z,70.71
2023-02-13T06:30:44.612Z,70.73
2023-02-13T06:33:18.077Z,70.69
2023-02-13T06:35:49.003Z,70.45
2023-02-13T06:38:22.273Z,70.19
2023-02-13T06:41:04.979Z,70.32
2023-02-13T06:43:39.788Z,70.05
2023-02-13T06:46:08.713Z,69.78
2023-02-13T06:48:41.373Z,69.52
2023-02-13T06:54:44.677Z,68.91
2023-02-13T06:57:14.411Z,67.83
2023-02-13T06:59:46.090Z,67.17
2023-02-13T07:02:17.496Z,67.00
2023-02-13T07:04:46.544Z,66.68
2023-02-13T07:07:17.225Z,66.39
2023-02-13T07:09:46.089Z,66.44
2023-02-13T07:12:22.993Z,66.40
2023-02-13T07:14:54.120Z,66.42
2023-02-13T07:17:30.310Z,66.39
2023-02-13T07:22:44.988Z,66.33
2023-02-13T07:25:16.778Z,66.14
2023-02-13T07:27:49.866Z,65.68
2023-02-13T07:30:24.097Z,65.44
2023-02-13T07:32:54.734Z,65.51
2023-02-13T07:35:25.307Z,65.65
2023-02-13T07:37:55.842Z,65.86
2023-02-13T07:40:24.471Z,65.75
2023-02-13T07:42:53.797Z,66.05
2023-02-13T07:45:22.543Z,66.20
2023-02-13T07:47:51.773Z,65.89
2023-02-13T07:50:23.160Z,65.90
2023-02-13T07:53:03.054Z,65.64
2023-02-13T07:55:46.984Z,65.69
2023-02-13T07:58:20.684Z,65.34
2023-02-13T08:01:18.512Z,65.31
2023-02-13T08:03:53.696Z,64.93
2023-02-13T08:06:28.594Z,64.79
2023-02-13T08:09:18.503Z,64.64
2023-02-13T08:14:52.741Z,64.14
2023-02-13T08:17:28.350Z,63.68
2023-02-13T08:19:57.211Z,62.86
2023-02-13T08:22:28.537Z,61.68
2023-02-13T08:24:57.932Z,61.15
2023-02-13T08:27:29.364Z,59.84
2023-02-13T08:30:06.164Z,59.32
2023-02-13T08:32:53.111Z,59.12
2023-02-13T08:35:26.996Z,58.45
2023-02-13T08:37:56.888Z,58.18
2023-02-13T08:40:28.648Z,57.86
2023-02-13T08:43:05.279Z,57.75
2023-02-13T08:45:45.628Z,57.15
2023-02-13T08:48:14.294Z,56.83
2023-02-13T08:50:46.523Z,56.13
2023-02-13T08:53:24.143Z,56.13
2023-02-13T08:56:01.266Z,56.80
2023-02-13T08:58:38.026Z,57.20
2023-02-13T09:01:16.802Z,58.24
2023-02-13T09:04:25.714Z,58.91
2023-02-13T09:06:55.460Z,60.09
2023-02-13T09:09:32.958Z,60.90
2023-02-13T09:12:03.174Z,61.25
2023-02-13T09:14:37.447Z,61.69
2023-02-13T09:17:20.123Z,61.95
2023-02-13T09:19:52.191Z,62.76
2023-02-13T09:22:22.939Z,63.42
2023-02-13T09:24:51.930Z,64.02
2023-02-13T09:27:25.703Z,64.55
2023-02-13T09:30:06.766Z,65.13
2023-02-13T09:32:39.993Z,65.77
2023-02-13T09:35:09.481Z,66.08
2023-02-13T09:37:44.254Z,66.84
2023-02-13T09:40:41.607Z,67.37
2023-02-13T09:43:30.930Z,67.71
2023-02-13T09:46:34.441Z,68.25
2023-02-13T09:49:11.833Z,68.04
2023-02-13T09:51:42.091Z,68.20
2023-02-13T09:54:19.369Z,68.32
2023-02-13T09:57:33.407Z,68.28
2023-02-13T10:00:20.217Z,68.49
2023-02-13T10:03:10.239Z,68.45
2023-02-13T10:05:58.053Z,68.21
2023-02-13T10:08:52.872Z,68.01
2023-02-13T10:11:47.523Z,67.40
2023-02-13T10:14:19.188Z,66.69
2023-02-13T10:17:26.771Z,65.96
2023-02-13T10:20:02.828Z,65.32
2023-02-13T10:22:37.100Z,65.32
2023-02-13T10:25:18.206Z,64.77
2023-02-13T10:27:54.574Z,64.81
2023-02-13T10:30:37.302Z,64.82
2023-02-13T10:33:20.489Z,65.21
2023-02-13T10:36:04.008Z,65.49
2023-02-13T10:39:11.809Z,65.77
2023-02-13T10:41:59.834Z,65.98
2023-02-13T10:44:34.783Z,66.71
2023-02-13T10:47:42.233Z,67.32
2023-02-13T10:50:27.555Z,68.18
2023-02-13T10:52:58.043Z,68.62
2023-02-13T10:55:55.705Z,68.71
2023-02-13T10:58:25.817Z,68.96
2023-02-13T11:01:17.149Z,68.81
2023-02-13T11:03:48.423Z,68.76
2023-02-13T11:06:19.447Z,69.09
2023-02-13T11:08:51.737Z,69.36
2023-02-13T11:11:33.251Z,69.44
2023-02-13T11:14:34.568Z,69.14
2023-02-13T11:17:16.281Z,69.43
2023-02-13T11:19:56.555Z,69.60
2023-02-13T11:22:49.640Z,70.24
2023-02-13T11:25:26.274Z,70.50
2023-02-13T11:28:17.940Z,70.93
2023-02-13T11:30:49.374Z,71.86
2023-02-13T11:33:40.126Z,72.15
2023-02-13T11:36:17.561Z,72.61
2023-02-13T11:38:46.975Z,73.42
2023-02-13T11:41:30.329Z,74.00
2023-02-13T11:44:04.725Z,74.45
2023-02-13T11:46:47.534Z,74.83
2023-02-13T11:49:23.707Z,75.36
2023-02-13T11:51:57.838Z,75.76
2023-02-13T11:54:47.794Z,76.09
2023-02-13T11:57:22.098Z,76.27
2023-02-13T11:59:54.583Z,76.25
2023-02-13T12:02:25.609Z,76.42
2023-02-13T12:04:56.971Z,76.69
2023-02-13T12:07:30.505Z,76.28
2023-02-13T12:10:09.916Z,76.52
2023-02-13T12:12:48.847Z,76.32
2023-02-13T12:15:23.480Z,75.97
2023-02-13T12:18:26.729Z,75.88
2023-02-13T12:21:01.463Z,75.67
2023-02-13T12:23:51.394Z,75.99
2023-02-13T12:26:43.525Z,75.74
2023-02-13T12:29:38.625Z,75.43
2023-02-13T12:32:17.776Z,75.51
2023-02-13T12:35:13.165Z,75.65
2023-02-13T12:38:36.662Z,75.56
2023-02-13T12:41:17.535Z,75.72
2023-02-13T12:44:30.807Z,76.19
2023-02-13T12:47:32.590Z,76.35
2023-02-13T12:50:29.462Z,76.63
2023-02-13T12:53:08.268Z,76.57
2023-02-13T12:55:54.728Z,77.15
2023-02-13T12:58:45.122Z,77.14
2023-02-13T13:01:29.201Z,77.17
2023-02-13T13:04:50.180Z,77.84
2023-02-13T13:07:31.598Z,77.85
2023-02-13T13:10:15.304Z,78.04
2023-02-13T13:13:08.140Z,78.13
2023-02-13T13:15:56.018Z,78.19
2023-02-13T13:18:31.385Z,78.30
2023-02-13T13:21:34.484Z,78.29
2023-02-13T13:24:21.021Z,78.37
2023-02-13T13:26:50.484Z,78.39
2023-02-13T13:29:24.416Z,78.02
2023-02-13T13:32:07.232Z,77.95
2023-02-13T13:35:01.779Z,78.01
2023-02-13T13:38:02.754Z,77.94
2023-02-13T13:40:40.801Z,77.81
2023-02-13T13:43:54.324Z,78.05
2023-02-13T13:46:30.650Z,78.47
2023-02-13T13:49:40.762Z,78.96
2023-02-13T13:52:37.630Z,79.30
2023-02-13T13:55:09.863Z,79.29
2023-02-13T13:57:45.120Z,79.84
2023-02-13T14:00:50.596Z,80.29
2023-02-13T14:03:36.683Z,80.24
2023-02-13T14:06:07.696Z,80.45
2023-02-13T14:08:43.241Z,80.60
2023-02-13T14:11:40.463Z,80.68
2023-02-13T14:14:34.054Z,80.87
2023-02-13T14:17:06.356Z,81.19
2023-02-13T14:19:40.679Z,81.63
2023-02-13T14:22:25.203Z,81.83
2023-02-13T14:24:59.168Z,81.87
2023-02-13T14:27:30.426Z,81.76
2023-02-13T14:30:01.632Z,81.95
2023-02-13T14:32:51.046Z,82.09
2023-02-13T14:35:39.771Z,82.23
2023-02-13T14:38:22.529Z,82.49
2023-02-13T14:40:52.675Z,82.68
2023-02-13T14:43:33.301Z,82.55
2023-02-13T14:46:21.112Z,82.96
2023-02-13T14:49:22.934Z,83.28
2023-02-13T14:51:54.982Z,82.94
2023-02-13T14:54:47.957Z,82.57
2023-02-13T14:57:55.970Z,82.74
2023-02-13T15:00:33.566Z,82.33
2023-02-13T15:03:21.102Z,82.47
2023-02-13T15:06:00.053Z,82.50
2023-02-13T15:08:33.481Z,82.83
2023-02-13T15:11:04.296Z,82.49
2023-02-13T15:13:37.981Z,82.57
2023-02-13T15:16:10.903Z,83.16
2023-02-13T15:18:40.718Z,82.64
2023-02-13T15:21:21.507Z,82.85
2023-02-13T15:23:56.416Z,82.83
2023-02-13T15:26:29.174Z,83.06
2023-02-13T15:29:13.952Z,83.14
2023-02-13T15:31:43.922Z,83.15
2023-02-13T15:34:27.909Z,82.76
2023-02-13T15:37:00.318Z,82.94
2023-02-13T15:39:32.462Z,82.87
2023-02-13T15:42:03.302Z,82.95
2023-02-13T15:44:35.559Z,83.04
2023-02-13T15:47:18.677Z,83.20
2023-02-13T15:49:51.870Z,83.08
2023-02-13T15:52:27.920Z,83.09
2023-02-13T15:54:58.569Z,83.22
2023-02-13T15:57:47.025Z,83.64
2023-02-13T16:00:41.910Z,83.48
2023-02-13T16:06:44.718Z,83.58
2023-02-13T16:09:33.683Z,84.15
2023-02-13T16:12:28.485Z,84.24
2023-02-13T16:15:02.677Z,84.24
2023-02-13T16:17:48.937Z,84.30
2023-02-13T16:20:42.561Z,84.76
2023-02-13T16:23:18.800Z,84.77
2023-02-13T16:26:00.510Z,84.88
2023-02-13T16:28:36.582Z,84.93
2023-02-13T16:31:07.511Z,85.31
2023-02-13T16:33:38.874Z,85.74
2023-02-13T16:36:14.461Z,86.07
2023-02-13T16:39:08.405Z,85.76
2023-02-13T16:41:49.141Z,86.23
2023-02-13T16:44:32.601Z,86.41
2023-02-13T16:47:05.023Z,87.00
2023-02-13T16:49:37.011Z,87.09
2023-02-13T16:52:12.698Z,87.38
2023-02-13T16:54:51.194Z,87.55
2023-02-13T16:57:24.299Z,87.57
2023-02-13T17:00:17.485Z,87.77
2023-02-13T17:02:46.839Z,87.92
2023-02-13T17:05:27.436Z,88.37
2023-02-13T17:07:59.052Z,88.12
2023-02-13T17:10:34.270Z,88.62
2023-02-13T17:13:13.187Z,88.66
2023-02-13T17:15:47.025Z,88.92
2023-02-13T17:18:21.589Z,88.97
2023-02-13T17:20:51.978Z,89.07
2023-02-13T17:23:26.588Z,89.26
2023-02-13T17:25:59.619Z,89.43
2023-02-13T17:28:39.952Z,89.40
2023-02-13T17:31:15.045Z,89.95
2023-02-13T17:33:45.597Z,89.86
2023-02-13T17:36:34.871Z,90.30
2023-02-13T17:39:08.991Z,90.28
2023-02-13T17:41:43.205Z,90.65
2023-02-13T17:44:14.347Z,90.71
2023-02-13T17:46:47.222Z,90.70
2023-02-13T17:49:17.974Z,90.55
2023-02-13T17:51:50.330Z,90.69
2023-02-13T17:54:21.591Z,90.88
2023-02-13T17:56:57.323Z,91.13
2023-02-13T17:59:29.304Z,90.76
2023-02-13T18:01:58.997Z,90.90
2023-02-13T18:04:30.296Z,90.56
2023-02-13T18:07:00.576Z,90.82
2023-02-13T18:09:35.610Z,91.06
2023-02-13T18:12:34.653Z,90.87
2023-02-13T18:15:05.204Z,91.04
2023-02-13T18:17:34.858Z,91.01
2023-02-13T18:20:09.889Z,91.11
2023-02-13T18:22:39.081Z,91.35
2023-02-13T18:25:08.854Z,90.77
2023-02-13T18:28:19.279Z,91.00
2023-02-13T18:30:53.814Z,91.22
2023-02-13T18:33:22.653Z,91.20
2023-02-13T18:36:03.163Z,91.48
2023-02-13T18:38:33.677Z,91.33
2023-02-13T18:41:04.686Z,91.22
2023-02-13T18:43:35.831Z,91.07
2023-02-13T18:46:05.418Z,91.12
2023-02-13T18:48:37.887Z,90.89
2023-02-13T18:51:12.612Z,91.13
2023-02-13T18:53:51.325Z,90.99
2023-02-13T18:56:24.184Z,90.98
2023-02-13T18:58:58.664Z,90.95
2023-02-13T19:01:35.092Z,90.95
2023-02-13T19:04:06.488Z,91.27
2023-02-13T19:06:41.129Z,90.76
2023-02-13T19:09:12.318Z,91.02
2023-02-13T19:11:42.943Z,90.64
2023-02-13T19:14:13.448Z,90.49
2023-02-13T19:16:47.083Z,90.43
2023-02-13T19:19:16.422Z,90.37
2023-02-13T19:21:45.826Z,90.25
2023-02-13T19:24:15.673Z,90.19
2023-02-13T19:26:45.354Z,90.35
2023-02-13T19:29:21.077Z,90.10
2023-02-13T19:31:52.073Z,90.05
2023-02-13T19:34:21.973Z,89.95
2023-02-13T19:39:38.314Z,89.66
2023-02-13T19:42:10.841Z,89.78
2023-02-13T19:44:45.317Z,89.96
2023-02-13T19:47:39.574Z,89.55
2023-02-13T19:50:09.376Z,89.48
2023-02-13T19:52:42.200Z,89.54
2023-02-13T19:55:14.538Z,89.42
2023-02-13T19:57:52.466Z,89.41
2023-02-13T20:00:27.626Z,89.24
2023-02-13T20:03:13.663Z,89.25
2023-02-13T20:06:13.535Z,89.10
2023-02-13T20:08:52.453Z,89.03
2023-02-13T20:11:22.732Z,89.19
2023-02-13T20:13:57.029Z,88.85
2023-02-13T20:16:28.885Z,89.04
2023-02-13T20:19:05.887Z,89.16
2023-02-13T20:21:37.003Z,88.92
2023-02-13T20:24:07.239Z,88.95
2023-02-13T20:26:39.612Z,88.82
2023-02-13T20:29:12.452Z,89.25
2023-02-13T20:31:53.061Z,89.13
2023-02-13T20:34:21.689Z,88.98
2023-02-13T20:36:57.606Z,89.14
